createdAt,value
2019-05-01T00:00:38.372Z,79.49
2019-05-01T00:03:33.666Z,79.31
2019-05-01T00:06:03.740Z,79.18
2019-05-01T00:08:33.427Z,79.10
2019-05-01T00:11:03.107Z,78.98
2019-05-01T00:13:33.882Z,79.02
2019-05-01T00:16:03.992Z,79.11
2019-05-01T00:18:34.803Z,79.25
2019-05-01T00:21:05.238Z,79.25
2019-05-01T00:23:34.914Z,79.17
2019-05-01T00:26:04.806Z,78.98
2019-05-01T00:28:34.487Z,78.80
2019-05-01T00:31:05.047Z,78.73
2019-05-01T00:33:35.002Z,78.76
2019-05-01T00:36:05.166Z,78.72
2019-05-01T00:38:34.859Z,78.61
2019-05-01T00:41:05.284Z,78.61
2019-05-01T00:43:34.962Z,78.59
2019-05-01T00:46:05.159Z,78.64
2019-05-01T00:48:34.849Z,78.83
2019-05-01T00:51:05.125Z,78.83
2019-05-01T00:53:35.782Z,78.85
2019-05-01T00:56:33.602Z,79.04
2019-05-01T00:59:21.487Z,79.01
2019-05-01T01:02:15.558Z,78.82
2019-05-01T01:04:45.321Z,78.75
2019-05-01T01:07:15.008Z,78.58
2019-05-01T01:09:44.696Z,78.71
2019-05-01T01:12:14.385Z,78.75
2019-05-01T01:14:44.453Z,78.52
2019-05-01T01:17:15.373Z,78.37
2019-05-01T01:19:45.051Z,78.29
2019-05-01T01:22:13.354Z,78.36
2019-05-01T01:24:41.663Z,78.50
2019-05-01T01:27:09.962Z,78.54
2019-05-01T01:29:38.274Z,78.58
2019-05-01T01:32:08.404Z,78.51
2019-05-01T01:34:38.230Z,78.71
2019-05-01T01:37:07.985Z,78.94
2019-05-01T01:39:38.131Z,79.50
2019-05-01T01:42:09.043Z,79.96
2019-05-01T01:44:47.401Z,79.98
2019-05-01T01:47:17.332Z,80.04
2019-05-01T01:49:47.091Z,79.77
2019-05-01T01:52:16.909Z,79.68
2019-05-01T01:54:46.830Z,80.31
2019-05-01T01:57:16.990Z,80.46
2019-05-01T01:59:46.814Z,80.77
2019-05-01T02:02:16.054Z,80.96
2019-05-01T02:04:45.022Z,80.96
2019-05-01T02:07:13.893Z,81.47
2019-05-01T02:09:42.838Z,81.46
2019-05-01T02:12:13.407Z,81.48
2019-05-01T02:14:43.151Z,81.33
2019-05-01T02:17:12.821Z,81.18
2019-05-01T02:19:42.492Z,81.33
2019-05-01T02:22:12.168Z,81.64
2019-05-01T02:24:41.918Z,81.54
2019-05-01T02:27:16.600Z,81.60
2019-05-01T02:29:50.490Z,81.80
2019-05-01T02:32:23.425Z,81.77
2019-05-01T02:34:54.698Z,81.56
2019-05-01T02:37:26.999Z,81.59
2019-05-01T02:39:58.946Z,81.66
2019-05-01T02:42:31.021Z,81.90
2019-05-01T02:45:03.098Z,81.78
2019-05-01T02:47:35.993Z,81.96
2019-05-01T02:50:09.495Z,81.87
2019-05-01T02:52:41.679Z,81.96
2019-05-01T02:55:21.948Z,81.93
2019-05-01T02:57:52.418Z,81.77
2019-05-01T03:00:22.079Z,81.83
2019-05-01T03:02:52.108Z,81.86
2019-05-01T03:05:22.146Z,81.41
2019-05-01T03:07:52.373Z,81.41
2019-05-01T03:10:22.187Z,82.08
2019-05-01T03:12:52.878Z,82.21
2019-05-01T03:15:25.257Z,82.29
2019-05-01T03:18:14.481Z,82.78
2019-05-01T03:21:06.594Z,82.72
2019-05-01T03:23:40.485Z,82.38
2019-05-01T03:26:10.873Z,82.33
2019-05-01T03:28:40.732Z,82.11
2019-05-01T03:31:10.695Z,82.05
2019-05-01T03:33:41.327Z,82.12
2019-05-01T03:36:11.764Z,82.20
2019-05-01T03:38:42.118Z,82.08
2019-05-01T03:41:12.046Z,81.96
2019-05-01T03:43:42.068Z,81.81
2019-05-01T03:46:11.908Z,81.92
2019-05-01T03:48:42.530Z,82.00
2019-05-01T03:51:13.794Z,82.00
2019-05-01T03:53:43.726Z,82.00
2019-05-01T03:56:13.871Z,82.05
2019-05-01T03:58:43.793Z,82.10
2019-05-01T04:01:35.768Z,82.32
2019-05-01T04:04:09.306Z,82.27
2019-05-01T04:06:39.164Z,82.13
2019-05-01T04:09:08.997Z,81.99
2019-05-01T04:11:38.926Z,81.79
2019-05-01T04:14:08.766Z,81.59
2019-05-01T04:16:39.965Z,81.38
2019-05-01T04:19:09.823Z,81.37
2019-05-01T04:21:45.455Z,81.29
2019-05-01T04:24:15.533Z,81.50
2019-05-01T04:26:45.798Z,81.55
2019-05-01T04:29:40.516Z,81.15
2019-05-01T04:32:29.619Z,81.15
2019-05-01T04:35:22.319Z,81.31
2019-05-01T04:37:53.257Z,81.28
2019-05-01T04:40:23.488Z,81.33
2019-05-01T04:42:53.636Z,80.69
2019-05-01T04:45:24.155Z,80.62
2019-05-01T04:47:54.795Z,80.62
2019-05-01T04:50:24.542Z,81.02
2019-05-01T04:52:54.890Z,80.90
2019-05-01T04:55:23.702Z,80.61
2019-05-01T04:57:52.172Z,80.30
2019-05-01T05:00:20.612Z,80.58
2019-05-01T05:03:04.954Z,80.46
2019-05-01T05:05:33.518Z,80.49
2019-05-01T05:08:03.781Z,80.21
2019-05-01T05:10:33.922Z,80.03
2019-05-01T05:13:13.270Z,79.84
2019-05-01T05:16:02.220Z,79.72
2019-05-01T05:18:32.244Z,79.61
2019-05-01T05:21:02.390Z,79.33
2019-05-01T05:23:32.695Z,79.43
2019-05-01T05:26:03.384Z,79.39
2019-05-01T05:28:34.333Z,79.15
2019-05-01T05:31:06.816Z,79.14
2019-05-01T05:33:38.340Z,79.09
2019-05-01T05:36:09.325Z,79.31
2019-05-01T05:38:55.444Z,79.14
2019-05-01T05:41:26.471Z,79.30
2019-05-01T05:43:57.093Z,79.21
2019-05-01T05:46:26.863Z,79.22
2019-05-01T05:48:56.620Z,79.03
2019-05-01T05:51:43.485Z,79.11
2019-05-01T05:54:33.177Z,78.99
2019-05-01T05:57:12.838Z,78.75
2019-05-01T05:59:47.953Z,78.39
2019-05-01T06:02:28.761Z,78.14
2019-05-01T06:05:12.846Z,78.08
2019-05-01T06:08:05.252Z,77.90
2019-05-01T06:10:58.552Z,77.88
2019-05-01T06:13:47.308Z,77.70
2019-05-01T06:16:24.934Z,77.57
2019-05-01T06:19:00.826Z,77.57
2019-05-01T06:21:36.106Z,77.52
2019-05-01T06:24:21.046Z,77.33
2019-05-01T06:26:50.965Z,77.02
2019-05-01T06:29:20.806Z,76.97
2019-05-01T06:31:54.079Z,76.50
2019-05-01T06:34:23.964Z,76.56
2019-05-01T06:36:53.760Z,76.31
2019-05-01T06:39:23.743Z,75.79
2019-05-01T06:41:53.680Z,75.63
2019-05-01T06:44:33.387Z,75.57
2019-05-01T06:47:25.889Z,75.50
2019-05-01T06:50:32.169Z,75.21
2019-05-01T06:53:04.752Z,75.13
2019-05-01T06:55:35.305Z,75.09
2019-05-01T06:58:05.837Z,74.92
2019-05-01T07:00:39.177Z,74.72
2019-05-01T07:03:10.511Z,74.59
2019-05-01T07:05:44.560Z,74.38
2019-05-01T07:08:23.998Z,73.46
2019-05-01T07:10:45.913Z,73.43
2019-05-01T07:13:15.764Z,73.46
2019-05-01T07:15:45.445Z,73.43
2019-05-01T07:18:18.846Z,73.30
2019-05-01T07:20:53.151Z,72.73
2019-05-01T07:23:23.677Z,72.44
2019-05-01T07:25:53.911Z,72.69
2019-05-01T07:28:28.873Z,72.73
2019-05-01T07:31:05.049Z,72.57
2019-05-01T07:33:34.067Z,72.68
2019-05-01T07:36:07.102Z,72.55
2019-05-01T07:38:38.509Z,72.53
2019-05-01T07:41:07.099Z,72.56
2019-05-01T07:43:59.591Z,72.43
2019-05-01T07:46:48.832Z,72.09
2019-05-01T07:49:17.610Z,72.07
2019-05-01T07:51:52.444Z,71.68
2019-05-01T07:54:23.479Z,72.00
2019-05-01T07:56:52.747Z,71.73
2019-05-01T07:59:22.816Z,71.75
2019-05-01T08:01:59.813Z,71.28
2019-05-01T08:04:35.852Z,71.37
2019-05-01T08:06:58.715Z,71.41
2019-05-01T08:09:27.929Z,71.49
2019-05-01T08:11:56.221Z,71.59
2019-05-01T08:14:24.657Z,71.65
2019-05-01T08:16:53.073Z,70.52
2019-05-01T08:19:26.670Z,70.84
2019-05-01T08:22:09.967Z,70.30
2019-05-01T08:24:38.261Z,70.45
2019-05-01T08:27:08.886Z,70.80
2019-05-01T08:30:05.406Z,70.22
2019-05-01T08:32:43.530Z,70.04
2019-05-01T08:35:15.296Z,69.34
2019-05-01T08:37:45.115Z,69.16
2019-05-01T08:40:20.396Z,69.10
2019-05-01T08:42:47.307Z,69.14
2019-05-01T08:45:49.223Z,68.77
2019-05-01T08:48:37.918Z,68.71
2019-05-01T08:51:07.760Z,67.72
2019-05-01T08:53:37.610Z,67.65
2019-05-01T08:56:09.782Z,66.86
2019-05-01T08:58:39.006Z,66.74
2019-05-01T09:01:10.744Z,66.30
2019-05-01T09:03:40.393Z,65.95
2019-05-01T09:06:10.083Z,65.77
2019-05-01T09:08:39.785Z,65.22
2019-05-01T09:11:09.546Z,65.19
2019-05-01T09:13:39.237Z,64.52
2019-05-01T09:16:09.161Z,62.98
2019-05-01T09:18:38.836Z,61.39
2019-05-01T09:21:08.895Z,60.74
2019-05-01T09:23:38.904Z,58.86
2019-05-01T09:26:16.384Z,58.56
2019-05-01T09:28:51.710Z,57.23
2019-05-01T09:31:23.491Z,57.27
2019-05-01T09:33:53.260Z,55.57
2019-05-01T09:36:23.022Z,56.00
2019-05-01T09:38:52.881Z,55.52
2019-05-01T09:41:22.650Z,54.79
2019-05-01T09:43:52.575Z,54.68
2019-05-01T09:46:22.528Z,52.88
2019-05-01T09:48:52.563Z,52.93
2019-05-01T09:51:42.499Z,52.75
2019-05-01T09:54:21.412Z,51.90
2019-05-01T09:56:51.358Z,52.75
2019-05-01T09:59:21.103Z,52.71
2019-05-01T10:01:50.888Z,52.15
2019-05-01T10:04:20.569Z,52.06
2019-05-01T10:06:52.197Z,52.74
2019-05-01T10:09:21.657Z,50.64
2019-05-01T10:11:51.506Z,50.61
2019-05-01T10:14:21.274Z,51.34
2019-05-01T10:16:50.950Z,51.80
2019-05-01T10:19:20.635Z,50.73
2019-05-01T10:21:50.583Z,50.62
2019-05-01T10:24:20.280Z,48.67
2019-05-01T10:26:55.193Z,49.56
2019-05-01T10:29:42.310Z,49.27
2019-05-01T10:32:37.018Z,49.70
2019-05-01T10:35:26.857Z,50.31
2019-05-01T10:37:56.625Z,50.71
2019-05-01T10:40:27.046Z,50.78
2019-05-01T10:42:58.379Z,50.81
2019-05-01T10:45:28.052Z,50.21
2019-05-01T10:47:57.747Z,49.84
2019-05-01T10:50:27.423Z,49.85
2019-05-01T10:52:57.111Z,48.60
2019-05-01T10:55:26.891Z,49.36
2019-05-01T10:57:56.562Z,48.94
2019-05-01T11:00:26.418Z,49.92
2019-05-01T11:02:56.370Z,49.68
2019-05-01T11:05:27.256Z,49.98
2019-05-01T11:07:56.934Z,50.41
2019-05-01T11:10:26.649Z,50.21
2019-05-01T11:12:56.406Z,51.17
2019-05-01T11:15:26.177Z,50.50
2019-05-01T11:17:56.087Z,50.06
2019-05-01T11:20:26.494Z,50.53
2019-05-01T11:22:56.247Z,50.12
2019-05-01T11:25:26.593Z,50.19
2019-05-01T11:27:56.535Z,49.51
2019-05-01T11:30:26.225Z,50.02
2019-05-01T11:33:11.122Z,50.24
2019-05-01T11:36:09.356Z,50.41
2019-05-01T11:38:47.169Z,50.32
2019-05-01T11:41:39.007Z,50.63
2019-05-01T11:44:08.694Z,50.52
2019-05-01T11:46:38.368Z,50.11
2019-05-01T11:49:08.148Z,50.30
2019-05-01T11:51:37.815Z,50.96
2019-05-01T11:54:07.568Z,51.56
2019-05-01T11:56:37.591Z,50.98
2019-05-01T11:59:07.280Z,51.37
2019-05-01T12:01:37.550Z,51.55
2019-05-01T12:04:07.235Z,50.95
2019-05-01T12:06:36.980Z,50.84
2019-05-01T12:09:07.755Z,51.39
2019-05-01T12:11:40.786Z,50.66
2019-05-01T12:14:10.570Z,50.77
2019-05-01T12:16:57.988Z,50.82
2019-05-01T12:19:27.787Z,49.53
2019-05-01T12:21:57.465Z,50.56
2019-05-01T12:24:30.405Z,51.12
2019-05-01T12:27:00.078Z,50.75
2019-05-01T12:29:29.780Z,50.89
2019-05-01T12:31:59.535Z,50.66
2019-05-01T12:34:29.224Z,50.60
2019-05-01T12:37:21.208Z,50.66
2019-05-01T12:39:49.627Z,50.31
2019-05-01T12:42:20.681Z,50.80
2019-05-01T12:44:48.475Z,50.05
2019-05-01T12:47:15.902Z,50.33
2019-05-01T12:49:43.334Z,50.31
2019-05-01T12:52:11.006Z,49.92
2019-05-01T12:54:38.404Z,49.83
2019-05-01T12:57:05.846Z,49.95
2019-05-01T12:59:33.352Z,50.71
2019-05-01T13:02:00.783Z,50.73
2019-05-01T13:04:28.381Z,50.91
2019-05-01T13:06:55.820Z,50.05
2019-05-01T13:09:23.371Z,50.41
2019-05-01T13:11:54.422Z,50.37
2019-05-01T13:14:24.106Z,49.80
2019-05-01T13:16:54.725Z,50.07
2019-05-01T13:19:24.423Z,50.83
2019-05-01T13:21:54.180Z,50.68
2019-05-01T13:24:23.943Z,50.61
2019-05-01T13:27:13.029Z,51.41
2019-05-01T13:29:48.579Z,50.96
2019-05-01T13:32:40.110Z,50.62
2019-05-01T13:35:10.125Z,50.88
2019-05-01T13:37:40.125Z,51.12
2019-05-01T13:40:10.967Z,50.70
2019-05-01T13:42:40.808Z,50.15
2019-05-01T13:45:12.158Z,49.66
2019-05-01T13:47:41.910Z,49.34
2019-05-01T13:50:13.122Z,49.01
2019-05-01T13:52:42.806Z,48.49
2019-05-01T13:55:12.850Z,48.84
2019-05-01T13:57:42.618Z,49.71
2019-05-01T14:00:13.049Z,50.16
2019-05-01T14:02:44.432Z,50.27
2019-05-01T14:05:14.250Z,50.29
2019-05-01T14:07:43.949Z,49.82
2019-05-01T14:10:13.707Z,50.29
2019-05-01T14:12:43.406Z,50.05
2019-05-01T14:15:13.364Z,49.89
2019-05-01T14:17:43.137Z,50.22
2019-05-01T14:20:34.940Z,50.37
2019-05-01T14:23:10.699Z,50.35
2019-05-01T14:25:58.115Z,49.99
2019-05-01T14:28:28.041Z,49.13
2019-05-01T14:30:57.752Z,49.92
2019-05-01T14:33:27.423Z,50.12
2019-05-01T14:35:57.351Z,49.67
2019-05-01T14:38:28.059Z,50.24
2019-05-01T14:40:57.799Z,50.56
2019-05-01T14:43:27.810Z,49.83
2019-05-01T14:45:57.552Z,49.19
2019-05-01T14:48:27.225Z,49.13
2019-05-01T14:50:56.938Z,49.02
2019-05-01T14:53:26.616Z,48.48
2019-05-01T14:55:56.371Z,48.22
2019-05-01T14:58:26.054Z,48.20
2019-05-01T15:00:55.813Z,48.30
2019-05-01T15:03:25.495Z,46.94
2019-05-01T15:05:55.714Z,47.60
2019-05-01T15:08:25.466Z,47.88
2019-05-01T15:10:55.226Z,48.48
2019-05-01T15:13:34.246Z,49.24
2019-05-01T15:16:09.818Z,49.54
2019-05-01T15:18:57.458Z,49.71
2019-05-01T15:21:27.214Z,50.15
2019-05-01T15:23:56.975Z,50.26
2019-05-01T15:26:26.654Z,50.72
2019-05-01T15:28:56.406Z,50.37
2019-05-01T15:31:26.258Z,51.02
2019-05-01T15:33:55.943Z,50.67
2019-05-01T15:36:25.866Z,50.65
2019-05-01T15:38:55.982Z,50.77
2019-05-01T15:41:47.718Z,50.19
2019-05-01T15:44:19.357Z,50.57
2019-05-01T15:46:48.042Z,50.88
2019-05-01T15:49:18.099Z,50.09
2019-05-01T15:51:48.301Z,49.99
2019-05-01T15:54:18.182Z,49.75
2019-05-01T15:56:48.112Z,50.04
2019-05-01T15:59:18.300Z,49.88
2019-05-01T16:01:48.262Z,49.67
2019-05-01T16:04:18.147Z,48.55
2019-05-01T16:06:48.214Z,48.43
2019-05-01T16:09:18.359Z,49.52
2019-05-01T16:12:13.106Z,49.98
2019-05-01T16:14:45.798Z,49.63
2019-05-01T16:17:15.768Z,50.08
2019-05-01T16:19:45.592Z,50.03
2019-05-01T16:22:15.762Z,50.45
2019-05-01T16:24:45.722Z,50.86
2019-05-01T16:27:16.576Z,50.64
2019-05-01T16:29:46.481Z,51.11
2019-05-01T16:32:16.548Z,50.96
2019-05-01T16:34:46.636Z,51.33
2019-05-01T16:37:16.519Z,51.81
2019-05-01T16:40:05.479Z,51.89
2019-05-01T16:42:40.884Z,51.89
2019-05-01T16:45:11.817Z,51.99
2019-05-01T16:47:42.143Z,52.10
2019-05-01T16:50:12.408Z,52.46
2019-05-01T16:52:43.567Z,52.54
2019-05-01T16:55:14.657Z,52.62
2019-05-01T16:57:45.352Z,52.23
2019-05-01T17:00:19.561Z,52.38
2019-05-01T17:02:58.703Z,52.60
2019-05-01T17:05:50.455Z,52.91
2019-05-01T17:08:46.138Z,53.05
2019-05-01T17:11:16.460Z,53.37
2019-05-01T17:13:47.270Z,53.66
2019-05-01T17:16:17.182Z,53.79
2019-05-01T17:21:16.129Z,54.39
2019-05-01T17:23:45.922Z,54.58
2019-05-01T17:26:16.177Z,54.98
2019-05-01T17:28:48.189Z,55.11
2019-05-01T17:31:18.441Z,55.40
2019-05-01T17:33:55.459Z,55.55
2019-05-01T17:36:26.283Z,55.87
2019-05-01T17:39:01.780Z,56.22
2019-05-01T17:41:31.062Z,56.42
2019-05-01T17:44:02.230Z,56.59
2019-05-01T17:46:32.171Z,56.81
2019-05-01T17:49:04.213Z,56.82
2019-05-01T17:51:33.498Z,56.91
2019-05-01T17:54:03.422Z,57.27
2019-05-01T17:56:34.165Z,57.47
2019-05-01T17:59:04.134Z,57.83
2019-05-01T18:02:05.331Z,58.04
2019-05-01T18:04:50.730Z,58.14
2019-05-01T18:07:22.041Z,58.31
2019-05-01T18:09:55.700Z,58.72
2019-05-01T18:12:28.444Z,59.21
2019-05-01T18:14:55.799Z,59.42
2019-05-01T18:17:26.476Z,59.66
2019-05-01T18:19:56.834Z,59.64
2019-05-01T18:22:46.709Z,60.06
2019-05-01T18:25:28.243Z,60.16
2019-05-01T18:28:15.420Z,60.72
2019-05-01T18:30:45.337Z,61.38
2019-05-01T18:33:15.879Z,61.64
2019-05-01T18:35:49.167Z,61.90
2019-05-01T18:38:24.413Z,62.13
2019-05-01T18:41:02.134Z,62.63
2019-05-01T18:43:33.891Z,62.79
2019-05-01T18:46:08.318Z,63.18
2019-05-01T18:48:38.450Z,63.22
2019-05-01T18:51:08.705Z,63.48
2019-05-01T18:53:38.805Z,63.45
2019-05-01T18:56:08.832Z,63.72
2019-05-01T18:58:39.043Z,63.89
2019-05-01T19:01:10.804Z,63.95
2019-05-01T19:03:44.080Z,64.33
2019-05-01T19:06:15.533Z,64.37
2019-05-01T19:08:45.744Z,64.49
2019-05-01T19:11:15.976Z,64.41
2019-05-01T19:13:45.420Z,64.51
2019-05-01T19:16:15.034Z,64.74
2019-05-01T19:18:49.354Z,64.93
2019-05-01T19:21:23.623Z,65.29
2019-05-01T19:23:52.572Z,65.39
2019-05-01T19:26:23.087Z,65.58
2019-05-01T19:28:54.280Z,65.75
2019-05-01T19:31:24.832Z,65.96
2019-05-01T19:33:54.683Z,65.90
2019-05-01T19:36:24.650Z,66.05
2019-05-01T19:38:55.387Z,66.31
2019-05-01T19:41:26.257Z,66.84
2019-05-01T19:43:56.091Z,67.10
2019-05-01T19:46:27.003Z,67.38
2019-05-01T19:48:57.148Z,67.43
2019-05-01T19:51:27.144Z,67.49
2019-05-01T19:53:57.150Z,67.74
2019-05-01T19:56:27.053Z,67.97
2019-05-01T19:58:56.870Z,68.12
2019-05-01T20:01:26.936Z,68.21
2019-05-01T20:03:56.858Z,68.32
2019-05-01T20:06:26.698Z,68.34
2019-05-01T20:08:56.946Z,68.31
2019-05-01T20:11:27.214Z,68.56
2019-05-01T20:13:57.539Z,68.47
2019-05-01T20:16:27.811Z,68.38
2019-05-01T20:18:57.718Z,68.56
2019-05-01T20:21:28.359Z,68.93
2019-05-01T20:23:58.171Z,68.94
2019-05-01T20:26:32.214Z,69.25
2019-05-01T20:29:01.066Z,69.19
2019-05-01T20:31:34.991Z,69.28
2019-05-01T20:34:05.355Z,69.55
2019-05-01T20:36:35.421Z,69.63
2019-05-01T20:39:07.157Z,69.46
2019-05-01T20:41:38.322Z,69.79
2019-05-01T20:44:08.233Z,69.93
2019-05-01T20:46:38.906Z,70.15
2019-05-01T20:49:08.997Z,70.28
2019-05-01T20:51:39.142Z,70.37
2019-05-01T20:54:09.522Z,70.22
2019-05-01T20:56:59.003Z,70.27
2019-05-01T20:59:28.919Z,70.51
2019-05-01T21:01:59.669Z,70.87
2019-05-01T21:04:49.608Z,70.85
2019-05-01T21:07:23.539Z,70.80
2019-05-01T21:09:57.878Z,70.75
2019-05-01T21:12:24.988Z,70.83
2019-05-01T21:14:54.887Z,70.92
2019-05-01T21:17:24.734Z,70.83
2019-05-01T21:19:54.662Z,70.99
2019-05-01T21:22:24.870Z,71.18
2019-05-01T21:24:54.802Z,71.25
2019-05-01T21:27:25.285Z,71.39
2019-05-01T21:29:56.085Z,71.36
2019-05-01T21:32:27.470Z,71.36
2019-05-01T21:34:58.556Z,71.53
2019-05-01T21:37:28.342Z,71.67
2019-05-01T21:39:58.260Z,71.84
2019-05-01T21:42:28.184Z,72.11
2019-05-01T21:44:58.704Z,72.20
2019-05-01T21:47:28.634Z,72.24
2019-05-01T21:49:59.448Z,72.28
2019-05-01T21:52:29.994Z,72.27
2019-05-01T21:54:59.902Z,72.39
2019-05-01T21:57:32.567Z,72.41
2019-05-01T22:00:01.257Z,72.40
2019-05-01T22:02:33.459Z,72.53
2019-05-01T22:05:04.114Z,72.68
2019-05-01T22:07:38.700Z,72.73
2019-05-01T22:10:09.237Z,72.78
2019-05-01T22:12:38.998Z,72.74
2019-05-01T22:15:34.790Z,72.73
2019-05-01T22:18:30.213Z,72.73
2019-05-01T22:21:07.930Z,72.85
2019-05-01T22:23:56.798Z,72.98
2019-05-01T22:26:28.643Z,72.76
2019-05-01T22:29:00.367Z,72.70
2019-05-01T22:31:57.592Z,72.91
2019-05-01T22:34:34.971Z,72.83
2019-05-01T22:37:05.400Z,72.54
2019-05-01T22:39:37.055Z,72.39
2019-05-01T22:42:06.763Z,72.56
2019-05-01T22:44:36.817Z,72.46
2019-05-01T22:47:10.254Z,72.27
2019-05-01T22:49:38.343Z,72.31
2019-05-01T22:52:17.270Z,72.38
2019-05-01T22:54:48.853Z,72.82
2019-05-01T22:57:20.790Z,72.81
2019-05-01T22:59:49.225Z,72.95
2019-05-01T23:02:28.367Z,73.14
2019-05-01T23:04:56.951Z,73.17
2019-05-01T23:07:27.724Z,73.53
2019-05-01T23:09:59.382Z,73.30
2019-05-01T23:12:30.236Z,73.21
2019-05-01T23:15:00.059Z,73.58
2019-05-01T23:17:39.549Z,74.60
2019-05-01T23:20:10.775Z,74.96
2019-05-01T23:22:40.449Z,75.17
2019-05-01T23:25:10.944Z,75.26
2019-05-01T23:27:40.693Z,75.33
2019-05-01T23:30:12.136Z,75.60
2019-05-01T23:32:42.045Z,76.65
2019-05-01T23:35:11.953Z,76.65
2019-05-01T23:37:41.806Z,76.44
2019-05-01T23:40:15.478Z,76.35
2019-05-01T23:42:52.431Z,76.31
2019-05-01T23:45:16.453Z,76.24
2019-05-01T23:47:46.352Z,76.41
2019-05-01T23:50:17.127Z,76.63
2019-05-01T23:52:47.057Z,76.73
2019-05-01T23:55:17.701Z,76.80
2019-05-01T23:57:47.489Z,76.84
